createdAt,value
2019-03-27T00:01:59.109Z,99.90
2019-03-27T00:04:28.666Z,99.90
2019-03-27T00:06:57.814Z,99.90
2019-03-27T00:09:27.142Z,99.90
2019-03-27T00:11:56.729Z,99.90
2019-03-27T00:14:26.052Z,99.90
2019-03-27T00:16:55.127Z,99.90
2019-03-27T00:19:24.219Z,99.90
2019-03-27T00:21:53.315Z,99.90
2019-03-27T00:24:22.398Z,99.90
2019-03-27T00:26:51.739Z,99.90
2019-03-27T00:29:20.794Z,99.90
2019-03-27T00:31:49.906Z,99.90
2019-03-27T00:34:19.451Z,99.90
2019-03-27T00:36:48.862Z,99.90
2019-03-27T00:39:18.074Z,99.90
2019-03-27T00:41:47.219Z,99.90
2019-03-27T00:44:16.534Z,99.90
2019-03-27T00:46:45.863Z,99.90
2019-03-27T00:49:15.000Z,99.90
2019-03-27T00:51:44.097Z,99.90
2019-03-27T00:54:13.190Z,99.90
2019-03-27T00:56:42.301Z,99.90
2019-03-27T00:59:11.386Z,99.90
2019-03-27T01:01:40.807Z,99.90
2019-03-27T01:04:10.114Z,99.90
2019-03-27T01:06:39.179Z,99.90
2019-03-27T01:09:08.259Z,99.90
2019-03-27T01:11:37.835Z,99.90
2019-03-27T01:14:07.186Z,99.90
2019-03-27T01:16:36.490Z,99.90
2019-03-27T01:19:05.649Z,99.90
2019-03-27T01:21:34.979Z,99.90
2019-03-27T01:24:04.294Z,99.90
2019-03-27T01:26:33.930Z,99.90
2019-03-27T01:29:03.087Z,99.90
2019-03-27T01:31:32.378Z,99.90
2019-03-27T01:34:01.695Z,99.90
2019-03-27T01:36:30.762Z,99.90
2019-03-27T01:39:00.083Z,99.90
2019-03-27T01:41:29.142Z,99.90
2019-03-27T01:43:58.254Z,99.90
2019-03-27T01:46:27.347Z,99.90
2019-03-27T01:48:56.680Z,99.90
2019-03-27T01:51:25.734Z,99.90
2019-03-27T01:53:54.833Z,99.90
2019-03-27T01:56:24.189Z,99.90
2019-03-27T01:58:53.726Z,99.90
2019-03-27T02:01:22.830Z,99.90
2019-03-27T02:03:52.177Z,99.90
2019-03-27T02:06:21.265Z,99.90
2019-03-27T02:08:50.559Z,99.90
2019-03-27T02:11:19.610Z,99.90
2019-03-27T02:13:48.730Z,99.90
2019-03-27T02:16:17.827Z,99.90
2019-03-27T02:18:47.170Z,99.90
2019-03-27T02:21:16.434Z,99.90
2019-03-27T02:23:45.519Z,99.90
2019-03-27T02:26:14.623Z,99.90
2019-03-27T02:28:43.931Z,99.90
2019-03-27T02:31:13.495Z,99.90
2019-03-27T02:33:42.851Z,99.90
2019-03-27T02:36:12.165Z,99.90
2019-03-27T02:38:41.675Z,99.90
2019-03-27T02:41:10.970Z,99.90
2019-03-27T02:43:40.331Z,99.90
2019-03-27T02:46:23.684Z,99.90
2019-03-27T02:48:40.511Z,99.90
2019-03-27T02:51:09.573Z,99.90
2019-03-27T02:53:38.905Z,99.90
2019-03-27T02:56:08.457Z,99.90
2019-03-27T02:58:37.546Z,99.90
2019-03-27T03:01:06.663Z,99.90
2019-03-27T03:03:35.967Z,99.90
2019-03-27T03:06:05.075Z,99.90
2019-03-27T03:08:34.413Z,99.90
2019-03-27T03:11:03.679Z,99.90
2019-03-27T03:13:32.751Z,99.90
2019-03-27T03:16:02.083Z,99.90
2019-03-27T03:18:31.398Z,99.90
2019-03-27T03:21:00.699Z,99.90
2019-03-27T03:23:29.741Z,99.90
2019-03-27T03:25:58.919Z,99.90
2019-03-27T03:28:28.038Z,99.90
2019-03-27T03:30:57.136Z,99.90
2019-03-27T03:33:26.244Z,99.90
2019-03-27T03:35:55.784Z,99.90
2019-03-27T03:38:25.096Z,99.90
2019-03-27T03:40:54.141Z,99.90
2019-03-27T03:43:23.238Z,99.90
2019-03-27T03:45:52.559Z,99.90
2019-03-27T03:48:21.900Z,99.90
2019-03-27T03:50:51.296Z,99.90
2019-03-27T03:53:20.433Z,99.90
2019-03-27T03:55:49.531Z,99.90
2019-03-27T03:58:18.872Z,99.90
2019-03-27T04:00:47.923Z,99.90
2019-03-27T04:03:17.266Z,99.90
2019-03-27T04:05:46.596Z,99.90
2019-03-27T04:08:15.743Z,99.90
2019-03-27T04:10:45.145Z,99.90
2019-03-27T04:13:14.595Z,99.90
2019-03-27T04:15:43.802Z,99.90
2019-03-27T04:18:12.947Z,99.90
2019-03-27T04:20:42.019Z,99.90
2019-03-27T04:23:11.347Z,99.90
2019-03-27T04:26:06.972Z,99.90
2019-03-27T04:28:11.526Z,99.90
2019-03-27T04:30:40.899Z,99.90
2019-03-27T04:33:10.204Z,99.90
2019-03-27T04:35:39.274Z,99.90
2019-03-27T04:38:08.830Z,99.90
2019-03-27T04:40:38.206Z,99.90
2019-03-27T04:43:07.847Z,99.90
2019-03-27T04:45:36.974Z,99.90
2019-03-27T04:48:06.098Z,99.90
2019-03-27T04:50:35.411Z,99.90
2019-03-27T04:53:04.502Z,99.90
2019-03-27T04:55:34.158Z,99.90
2019-03-27T04:58:03.873Z,99.90
2019-03-27T05:00:33.294Z,99.90
2019-03-27T05:03:02.699Z,99.90
2019-03-27T05:05:31.786Z,99.90
2019-03-27T05:08:01.184Z,99.90
2019-03-27T05:10:30.752Z,99.90
2019-03-27T05:12:59.790Z,99.90
2019-03-27T05:15:29.207Z,99.90
2019-03-27T05:17:58.298Z,99.90
2019-03-27T05:20:28.825Z,99.90
2019-03-27T05:22:58.020Z,99.90
2019-03-27T05:25:27.382Z,99.90
2019-03-27T05:27:56.647Z,99.90
2019-03-27T05:30:28.750Z,99.90
2019-03-27T05:32:57.961Z,99.90
2019-03-27T05:35:27.098Z,99.90
2019-03-27T05:37:56.267Z,99.90
2019-03-27T05:40:25.394Z,99.90
2019-03-27T05:43:00.868Z,99.90
2019-03-27T05:45:26.159Z,99.90
2019-03-27T05:47:59.766Z,99.90
2019-03-27T05:50:26.281Z,99.90
2019-03-27T05:52:55.842Z,99.90
2019-03-27T05:55:26.614Z,99.90
2019-03-27T05:57:56.506Z,99.90
2019-03-27T06:00:25.951Z,99.90
2019-03-27T06:02:55.029Z,99.90
2019-03-27T06:05:24.134Z,99.90
2019-03-27T06:07:53.522Z,99.90
2019-03-27T06:10:22.554Z,99.90
2019-03-27T06:12:51.606Z,99.90
2019-03-27T06:15:20.722Z,99.90
2019-03-27T06:17:49.811Z,99.90
2019-03-27T06:20:19.247Z,99.90
2019-03-27T06:22:48.302Z,99.90
2019-03-27T06:25:17.414Z,99.90
2019-03-27T06:27:46.500Z,99.90
2019-03-27T06:30:15.775Z,99.90
2019-03-27T06:32:44.890Z,99.90
2019-03-27T06:35:14.003Z,99.90
2019-03-27T06:37:43.395Z,99.90
2019-03-27T06:40:12.560Z,99.90
2019-03-27T06:42:41.683Z,99.90
2019-03-27T06:45:10.796Z,99.90
2019-03-27T06:47:40.129Z,99.90
2019-03-27T06:50:09.190Z,99.90
2019-03-27T06:52:38.270Z,99.90
2019-03-27T06:55:08.499Z,99.90
2019-03-27T06:57:37.592Z,99.90
2019-03-27T07:00:07.831Z,99.90
2019-03-27T07:02:37.371Z,99.90
2019-03-27T07:05:07.026Z,99.90
2019-03-27T07:07:36.355Z,99.90
2019-03-27T07:10:05.738Z,99.90
2019-03-27T07:12:34.778Z,99.90
2019-03-27T07:15:04.160Z,99.90
2019-03-27T07:17:33.544Z,99.90
2019-03-27T07:20:02.640Z,99.90
2019-03-27T07:22:31.722Z,99.90
2019-03-27T07:25:01.115Z,99.90
2019-03-27T07:27:30.230Z,99.90
2019-03-27T07:29:59.851Z,99.90
2019-03-27T07:32:28.938Z,99.90
2019-03-27T07:34:58.267Z,99.90
2019-03-27T07:37:27.330Z,99.90
2019-03-27T07:39:56.891Z,99.90
2019-03-27T07:42:28.744Z,99.90
2019-03-27T07:44:56.866Z,99.90
2019-03-27T07:47:25.984Z,99.90
2019-03-27T07:49:55.563Z,99.90
2019-03-27T07:52:24.674Z,99.90
2019-03-27T07:54:53.762Z,99.90
2019-03-27T07:57:23.090Z,99.90
2019-03-27T07:59:52.627Z,99.90
2019-03-27T08:02:22.035Z,99.90
2019-03-27T08:04:51.163Z,99.90
2019-03-27T08:07:26.693Z,99.90
2019-03-27T08:09:51.095Z,99.90
2019-03-27T08:12:20.715Z,99.90
2019-03-27T08:14:49.808Z,99.90
2019-03-27T08:17:19.134Z,99.90
2019-03-27T08:19:48.426Z,99.90
2019-03-27T08:22:17.510Z,99.90
2019-03-27T08:24:46.918Z,99.90
2019-03-27T08:27:16.026Z,99.90
2019-03-27T08:29:45.099Z,99.90
2019-03-27T08:32:14.203Z,99.90
2019-03-27T08:34:43.281Z,99.90
2019-03-27T08:37:12.706Z,99.90
2019-03-27T08:39:42.299Z,99.90
2019-03-27T08:42:11.630Z,99.90
2019-03-27T08:44:40.705Z,99.90
2019-03-27T08:47:09.820Z,99.90
2019-03-27T08:49:38.880Z,99.90
2019-03-27T08:52:07.984Z,99.90
2019-03-27T08:54:37.091Z,99.90
2019-03-27T08:57:06.496Z,99.90
2019-03-27T08:59:35.582Z,99.90
2019-03-27T09:02:04.675Z,99.90
2019-03-27T09:04:33.774Z,99.90
2019-03-27T09:07:02.866Z,99.90
2019-03-27T09:09:31.971Z,99.90
2019-03-27T09:12:03.828Z,99.90
2019-03-27T09:14:33.118Z,99.90
2019-03-27T09:17:02.712Z,99.90
2019-03-27T09:19:35.973Z,99.90
2019-03-27T09:22:03.002Z,99.90
2019-03-27T09:24:32.311Z,99.90
2019-03-27T09:27:01.459Z,99.90
2019-03-27T09:29:31.103Z,99.90
2019-03-27T09:32:01.428Z,99.90
2019-03-27T09:34:30.522Z,99.90
2019-03-27T09:36:59.590Z,99.90
2019-03-27T09:39:28.699Z,99.90
2019-03-27T09:41:57.787Z,99.90
2019-03-27T09:44:27.404Z,99.90
2019-03-27T09:46:56.744Z,99.90
2019-03-27T09:49:26.058Z,99.90
2019-03-27T09:51:56.114Z,99.90
2019-03-27T09:54:25.214Z,99.90
2019-03-27T09:56:54.537Z,99.90
2019-03-27T09:59:23.887Z,99.90
2019-03-27T10:01:53.935Z,99.90
2019-03-27T10:04:23.040Z,99.90
2019-03-27T10:06:52.122Z,99.90
2019-03-27T10:09:21.222Z,99.90
2019-03-27T10:11:50.623Z,99.90
2019-03-27T10:14:19.666Z,99.90
2019-03-27T10:16:48.987Z,99.90
2019-03-27T10:19:18.373Z,99.90
2019-03-27T10:21:47.406Z,99.90
2019-03-27T10:24:16.522Z,99.90
2019-03-27T10:26:46.174Z,99.90
2019-03-27T10:29:15.474Z,99.90
2019-03-27T10:31:44.518Z,99.90
2019-03-27T10:34:13.934Z,99.90
2019-03-27T10:36:43.016Z,99.90
2019-03-27T10:39:12.130Z,99.90
2019-03-27T10:41:41.458Z,99.90
2019-03-27T10:44:10.755Z,99.90
2019-03-27T10:46:40.276Z,99.90
2019-03-27T10:49:09.336Z,99.90
2019-03-27T10:51:38.933Z,99.90
2019-03-27T10:54:08.035Z,99.90
2019-03-27T10:56:37.378Z,99.90
2019-03-27T10:59:06.509Z,99.90
2019-03-27T11:01:35.631Z,99.90
2019-03-27T11:04:04.706Z,99.90
2019-03-27T11:06:34.051Z,99.90
2019-03-27T11:09:04.779Z,99.90
2019-03-27T11:11:34.096Z,99.90
2019-03-27T11:14:03.146Z,99.90
2019-03-27T11:16:32.251Z,99.90
2019-03-27T11:19:01.350Z,99.90
2019-03-27T11:21:30.658Z,99.90
2019-03-27T11:23:59.991Z,99.90
2019-03-27T11:26:29.134Z,99.90
2019-03-27T11:28:58.400Z,99.90
2019-03-27T11:31:27.543Z,99.90
2019-03-27T11:33:57.148Z,99.90
2019-03-27T11:36:26.467Z,99.90
2019-03-27T11:38:55.532Z,99.90
2019-03-27T11:41:24.640Z,99.90
2019-03-27T11:43:55.114Z,99.90
2019-03-27T11:46:24.750Z,99.90
2019-03-27T11:48:53.879Z,99.90
2019-03-27T11:51:23.195Z,99.90
2019-03-27T11:53:52.564Z,99.90
2019-03-27T11:56:21.934Z,99.90
2019-03-27T11:58:51.548Z,99.90
2019-03-27T12:01:20.684Z,99.90
2019-03-27T12:03:49.765Z,99.90
2019-03-27T12:06:18.872Z,99.90
2019-03-27T12:08:50.689Z,99.90
2019-03-27T12:11:19.024Z,99.90
2019-03-27T12:13:48.359Z,99.90
2019-03-27T12:16:17.386Z,99.90
2019-03-27T12:18:46.514Z,99.90
2019-03-27T12:21:15.579Z,99.90
2019-03-27T12:23:44.926Z,99.90
2019-03-27T12:26:13.994Z,99.90
2019-03-27T12:28:43.638Z,99.90
2019-03-27T12:31:12.694Z,99.90
2019-03-27T12:33:41.795Z,99.90
2019-03-27T12:36:11.142Z,99.90
2019-03-27T12:38:40.526Z,99.90
2019-03-27T12:41:09.855Z,99.90
2019-03-27T12:43:39.003Z,99.90
2019-03-27T12:46:08.078Z,99.90
2019-03-27T12:48:37.458Z,99.90
2019-03-27T12:51:12.737Z,99.90
2019-03-27T12:53:37.902Z,99.90
2019-03-27T12:56:07.030Z,99.90
2019-03-27T12:58:36.136Z,99.90
2019-03-27T13:01:05.215Z,99.90
2019-03-27T13:03:34.554Z,99.90
2019-03-27T13:06:03.624Z,99.90
2019-03-27T13:08:32.718Z,99.90
2019-03-27T13:11:01.998Z,99.90
2019-03-27T13:13:31.291Z,99.90
2019-03-27T13:16:00.334Z,99.80
2019-03-27T13:18:29.447Z,99.90
2019-03-27T13:20:58.555Z,99.90
2019-03-27T13:23:28.182Z,99.90
2019-03-27T13:25:57.234Z,99.90
2019-03-27T13:28:26.339Z,99.90
2019-03-27T13:30:55.659Z,99.90
2019-03-27T13:33:25.002Z,99.00
2019-03-27T13:35:54.374Z,99.60
2019-03-27T13:38:23.670Z,99.90
2019-03-27T13:40:52.744Z,99.60
2019-03-27T13:43:22.086Z,98.80
2019-03-27T13:45:51.372Z,98.50
2019-03-27T13:48:20.697Z,98.80
2019-03-27T13:50:49.726Z,99.50
2019-03-27T13:53:19.131Z,98.90
2019-03-27T13:55:48.811Z,98.20
2019-03-27T13:58:18.316Z,97.10
2019-03-27T14:00:47.454Z,94.90
2019-03-27T14:03:16.603Z,95.10
2019-03-27T14:05:45.866Z,93.60
2019-03-27T14:08:14.950Z,92.30
2019-03-27T14:10:44.047Z,91.00
2019-03-27T14:13:13.099Z,87.30
2019-03-27T14:15:42.244Z,84.40
2019-03-27T14:18:11.319Z,85.00
2019-03-27T14:20:40.438Z,80.90
2019-03-27T14:23:09.519Z,79.40
2019-03-27T14:25:38.619Z,80.90
2019-03-27T14:28:08.033Z,89.10
2019-03-27T14:30:53.534Z,91.10
2019-03-27T14:33:22.583Z,86.50
2019-03-27T14:35:51.702Z,88.10
2019-03-27T14:38:20.778Z,80.80
2019-03-27T14:40:50.355Z,83.00
2019-03-27T14:43:19.487Z,80.90
2019-03-27T14:45:48.698Z,80.70
2019-03-27T14:48:17.815Z,77.10
2019-03-27T14:50:46.882Z,76.30
2019-03-27T14:53:15.974Z,77.20
2019-03-27T14:55:45.075Z,76.30
2019-03-27T14:58:14.398Z,75.50
2019-03-27T15:00:43.471Z,76.70
2019-03-27T15:03:12.798Z,77.20
2019-03-27T15:05:41.886Z,73.50
2019-03-27T15:08:11.235Z,74.20
2019-03-27T15:10:40.711Z,75.50
2019-03-27T15:13:09.998Z,74.20
2019-03-27T15:15:39.355Z,75.40
2019-03-27T15:18:08.718Z,72.40
2019-03-27T15:20:37.770Z,71.90
2019-03-27T15:23:07.422Z,72.20
2019-03-27T15:25:36.470Z,72.80
2019-03-27T15:28:05.830Z,75.20
2019-03-27T15:30:35.362Z,76.40
2019-03-27T15:33:04.495Z,80.60
2019-03-27T15:35:51.987Z,80.90
2019-03-27T15:38:21.150Z,81.10
2019-03-27T15:40:50.435Z,81.30
2019-03-27T15:43:19.838Z,81.90
2019-03-27T15:45:49.296Z,83.60
2019-03-27T15:48:18.698Z,86.50
2019-03-27T15:50:55.530Z,87.30
2019-03-27T15:53:18.862Z,88.60
2019-03-27T15:55:48.292Z,86.80
2019-03-27T15:58:17.366Z,86.50
2019-03-27T16:00:46.526Z,82.20
2019-03-27T16:03:15.991Z,84.50
2019-03-27T16:05:45.099Z,86.60
2019-03-27T16:08:14.524Z,86.10
2019-03-27T16:10:44.035Z,87.30
2019-03-27T16:13:13.182Z,85.50
2019-03-27T16:15:42.335Z,85.60
2019-03-27T16:18:11.466Z,85.90
2019-03-27T16:20:41.064Z,87.80
2019-03-27T16:23:10.167Z,89.90
2019-03-27T16:25:39.250Z,90.50
2019-03-27T16:28:08.364Z,90.80
2019-03-27T16:30:37.518Z,91.30
2019-03-27T16:33:07.051Z,90.80
2019-03-27T16:35:36.162Z,91.10
2019-03-27T16:38:05.254Z,91.30
2019-03-27T16:40:44.458Z,91.90
2019-03-27T16:43:13.971Z,92.10
2019-03-27T16:45:43.155Z,91.60
2019-03-27T16:48:12.321Z,91.90
2019-03-27T16:50:41.522Z,91.00
2019-03-27T16:53:10.863Z,91.40
2019-03-27T16:55:40.033Z,91.70
2019-03-27T16:58:09.198Z,92.50
2019-03-27T17:00:38.275Z,92.20
2019-03-27T17:03:07.636Z,92.50
2019-03-27T17:05:37.102Z,92.40
2019-03-27T17:08:06.206Z,91.80
2019-03-27T17:10:35.279Z,92.10
2019-03-27T17:13:04.851Z,92.70
2019-03-27T17:15:33.974Z,93.20
2019-03-27T17:18:03.410Z,93.50
2019-03-27T17:20:32.475Z,94.00
2019-03-27T17:23:01.585Z,94.60
2019-03-27T17:25:30.658Z,94.90
2019-03-27T17:27:59.772Z,95.20
2019-03-27T17:30:31.846Z,95.30
2019-03-27T17:32:59.711Z,95.50
2019-03-27T17:35:28.762Z,95.50
2019-03-27T17:37:57.902Z,95.40
2019-03-27T17:40:27.315Z,96.80
2019-03-27T17:42:56.547Z,97.80
2019-03-27T17:45:25.686Z,97.30
2019-03-27T17:47:55.083Z,96.40
2019-03-27T17:50:24.186Z,96.50
2019-03-27T17:52:53.352Z,97.40
2019-03-27T17:55:22.478Z,98.10
2019-03-27T17:57:51.920Z,98.80
2019-03-27T18:00:43.938Z,99.10
2019-03-27T18:03:13.298Z,99.40
2019-03-27T18:05:42.806Z,99.80
2019-03-27T18:08:11.935Z,99.90
2019-03-27T18:10:41.690Z,99.90
2019-03-27T18:13:11.611Z,99.90
2019-03-27T18:15:41.284Z,99.90
2019-03-27T18:18:10.366Z,99.90
2019-03-27T18:20:39.759Z,99.90
2019-03-27T18:23:09.425Z,99.90
2019-03-27T18:25:38.562Z,99.90
2019-03-27T18:28:07.676Z,99.90
2019-03-27T18:30:37.067Z,99.90
2019-03-27T18:33:06.166Z,99.90
2019-03-27T18:35:35.214Z,99.90
2019-03-27T18:38:04.986Z,99.90
2019-03-27T18:40:34.058Z,99.90
2019-03-27T18:43:03.538Z,99.90
2019-03-27T18:45:33.276Z,99.90
2019-03-27T18:48:02.723Z,99.90
2019-03-27T18:50:31.783Z,99.90
2019-03-27T18:53:00.874Z,99.90
2019-03-27T18:55:30.603Z,99.90
2019-03-27T18:58:00.748Z,99.90
2019-03-27T19:00:30.970Z,99.90
2019-03-27T19:03:00.560Z,99.90
2019-03-27T19:05:29.910Z,99.90
2019-03-27T19:07:59.035Z,99.90
2019-03-27T19:10:28.161Z,99.90
2019-03-27T19:13:16.731Z,99.90
2019-03-27T19:16:04.834Z,99.90
2019-03-27T19:18:53.179Z,99.90
2019-03-27T19:21:41.751Z,99.90
2019-03-27T19:24:29.868Z,99.90
2019-03-27T19:27:17.967Z,99.90
2019-03-27T19:30:06.255Z,99.90
2019-03-27T19:32:54.594Z,99.90
2019-03-27T19:35:42.777Z,99.90
2019-03-27T19:38:30.963Z,99.90
2019-03-27T19:41:19.067Z,99.90
2019-03-27T19:44:06.091Z,99.90
2019-03-27T19:46:54.200Z,99.90
2019-03-27T19:49:35.538Z,99.90
2019-03-27T19:52:16.496Z,99.90
2019-03-27T19:54:57.134Z,99.90
2019-03-27T20:00:23.119Z,99.90
2019-03-27T20:11:22.243Z,99.90
2019-03-27T20:14:02.574Z,99.90
2019-03-27T20:25:08.395Z,99.90
2019-03-27T20:27:51.190Z,99.90
2019-03-27T20:30:31.590Z,99.90
2019-03-27T20:33:12.155Z,99.90
2019-03-27T20:35:53.062Z,99.90
2019-03-27T20:38:33.710Z,99.90
2019-03-27T20:41:14.635Z,99.90
2019-03-27T20:43:55.339Z,99.90
2019-03-27T20:46:36.006Z,99.90
2019-03-27T20:49:16.331Z,99.90
2019-03-27T20:51:57.061Z,99.90
2019-03-27T20:54:37.887Z,99.90
2019-03-27T20:57:18.570Z,99.90
2019-03-27T20:59:59.571Z,99.90
2019-03-27T21:02:40.043Z,99.90
2019-03-27T21:05:20.464Z,99.90
2019-03-27T21:08:00.991Z,99.90
2019-03-27T21:10:41.815Z,99.90
2019-03-27T21:13:22.676Z,99.90
2019-03-27T21:16:03.066Z,99.90
2019-03-27T21:18:43.523Z,99.90
2019-03-27T21:21:24.219Z,99.90
2019-03-27T21:24:04.799Z,99.90
2019-03-27T21:26:45.295Z,99.90
2019-03-27T21:29:26.144Z,99.90
2019-03-27T21:32:06.866Z,99.90
2019-03-27T21:34:47.399Z,99.90
2019-03-27T21:37:27.823Z,99.90
2019-03-27T21:40:08.482Z,99.90
2019-03-27T21:42:49.127Z,99.90
2019-03-27T21:45:32.260Z,99.90
2019-03-27T21:48:12.584Z,99.90
2019-03-27T21:50:53.250Z,99.90
2019-03-27T21:53:33.716Z,99.90
2019-03-27T21:56:14.275Z,99.90
2019-03-27T21:58:54.874Z,99.90
2019-03-27T22:01:35.435Z,99.90
2019-03-27T22:04:16.434Z,99.90
2019-03-27T22:06:57.194Z,99.90
2019-03-27T22:09:37.794Z,99.90
2019-03-27T22:12:18.346Z,99.90
2019-03-27T22:14:58.827Z,99.90
2019-03-27T22:17:40.137Z,99.90
2019-03-27T22:20:21.242Z,99.90
2019-03-27T22:23:01.672Z,99.90
2019-03-27T22:25:42.439Z,99.90
2019-03-27T22:31:04.850Z,99.90
2019-03-27T22:33:45.478Z,99.90
2019-03-27T22:36:26.459Z,99.90
2019-03-27T22:39:06.775Z,99.90
2019-03-27T22:41:47.488Z,99.90
2019-03-27T22:44:28.191Z,99.90
2019-03-27T22:47:09.374Z,99.90
2019-03-27T22:49:49.705Z,99.90
2019-03-27T22:52:30.200Z,99.90
2019-03-27T22:55:09.414Z,99.90
2019-03-27T22:57:57.527Z,99.90
2019-03-27T23:01:04.741Z,99.90
2019-03-27T23:03:53.076Z,99.90
2019-03-27T23:06:41.185Z,99.90
2019-03-27T23:09:29.526Z,99.90
2019-03-27T23:12:17.635Z,99.90
2019-03-27T23:15:06.107Z,99.90
2019-03-27T23:17:54.211Z,99.90
2019-03-27T23:20:42.561Z,99.90
2019-03-27T23:23:30.659Z,99.90
2019-03-27T23:26:18.778Z,99.90
2019-03-27T23:29:06.882Z,99.90
2019-03-27T23:31:54.989Z,99.90
2019-03-27T23:34:43.327Z,99.90
2019-03-27T23:40:24.216Z,99.90
2019-03-27T23:46:05.095Z,99.90
